sensor_id;sensor_type;location;lat;lon;timestamp;P1;durP1;ratioP1;P2;durP2;ratioP2
53642;SDS011;39546;45.534;12.048;2023-09-19T00:04:57;4.93;;;1.60;;
53642;SDS011;39546;45.534;12.048;2023-09-19T00:10:59;6.10;;;2.55;;
53642;SDS011;39546;45.534;12.048;2023-09-19T00:17:05;4.37;;;2.17;;
53642;SDS011;39546;45.534;12.048;2023-09-19T00:23:09;2.85;;;1.52;;
53642;SDS011;39546;45.534;12.048;2023-09-19T00:29:11;3.75;;;1.60;;
53642;SDS011;39546;45.534;12.048;2023-09-19T00:35:18;5.28;;;2.75;;
53642;SDS011;39546;45.534;12.048;2023-09-19T00:41:20;8.00;;;2.67;;
53642;SDS011;39546;45.534;12.048;2023-09-19T00:47:22;8.77;;;3.05;;
53642;SDS011;39546;45.534;12.048;2023-09-19T00:53:24;9.32;;;2.70;;
53642;SDS011;39546;45.534;12.048;2023-09-19T00:59:28;7.82;;;2.42;;
53642;SDS011;39546;45.534;12.048;2023-09-19T01:05:33;8.88;;;2.60;;
53642;SDS011;39546;45.534;12.048;2023-09-19T01:11:37;4.30;;;1.65;;
53642;SDS011;39546;45.534;12.048;2023-09-19T01:18:11;6.03;;;2.85;;
53642;SDS011;39546;45.534;12.048;2023-09-19T01:30:24;8.27;;;2.30;;
53642;SDS011;39546;45.534;12.048;2023-09-19T01:36:31;7.62;;;3.00;;
53642;SDS011;39546;45.534;12.048;2023-09-19T01:49:07;4.78;;;2.45;;
53642;SDS011;39546;45.534;12.048;2023-09-19T01:55:26;8.27;;;3.08;;
53642;SDS011;39546;45.534;12.048;2023-09-19T02:01:30;4.60;;;2.55;;
53642;SDS011;39546;45.534;12.048;2023-09-19T02:07:33;4.60;;;3.12;;
53642;SDS011;39546;45.534;12.048;2023-09-19T02:13:37;8.93;;;4.95;;
53642;SDS011;39546;45.534;12.048;2023-09-19T02:19:40;9.07;;;3.95;;
53642;SDS011;39546;45.534;12.048;2023-09-19T02:25:42;6.18;;;3.20;;
53642;SDS011;39546;45.534;12.048;2023-09-19T02:31:44;8.38;;;3.53;;
53642;SDS011;39546;45.534;12.048;2023-09-19T02:37:48;8.73;;;4.60;;
53642;SDS011;39546;45.534;12.048;2023-09-19T02:43:52;10.35;;;4.05;;
53642;SDS011;39546;45.534;12.048;2023-09-19T02:49:55;10.70;;;4.30;;
53642;SDS011;39546;45.534;12.048;2023-09-19T02:55:57;8.10;;;4.47;;
53642;SDS011;39546;45.534;12.048;2023-09-19T03:02:00;10.45;;;3.12;;
53642;SDS011;39546;45.534;12.048;2023-09-19T03:08:06;9.23;;;4.03;;
53642;SDS011;39546;45.534;12.048;2023-09-19T03:14:09;9.20;;;3.62;;
53642;SDS011;39546;45.534;12.048;2023-09-19T03:20:12;5.72;;;2.33;;
53642;SDS011;39546;45.534;12.048;2023-09-19T03:26:16;5.90;;;3.17;;
53642;SDS011;39546;45.534;12.048;2023-09-19T03:32:20;4.30;;;1.95;;
53642;SDS011;39546;45.534;12.048;2023-09-19T03:38:22;5.65;;;2.40;;
53642;SDS011;39546;45.534;12.048;2023-09-19T03:44:25;10.77;;;3.40;;
53642;SDS011;39546;45.534;12.048;2023-09-19T03:50:27;6.18;;;2.70;;
53642;SDS011;39546;45.534;12.048;2023-09-19T03:56:29;3.58;;;2.25;;
53642;SDS011;39546;45.534;12.048;2023-09-19T04:02:32;4.78;;;2.62;;
53642;SDS011;39546;45.534;12.048;2023-09-19T04:08:34;5.82;;;2.22;;
53642;SDS011;39546;45.534;12.048;2023-09-19T04:14:37;7.97;;;2.53;;
53642;SDS011;39546;45.534;12.048;2023-09-19T04:20:39;5.00;;;2.42;;
53642;SDS011;39546;45.534;12.048;2023-09-19T04:26:42;5.47;;;2.87;;
53642;SDS011;39546;45.534;12.048;2023-09-19T04:32:45;7.95;;;3.58;;
53642;SDS011;39546;45.534;12.048;2023-09-19T04:38:52;6.95;;;3.53;;
53642;SDS011;39546;45.534;12.048;2023-09-19T04:44:55;6.12;;;2.78;;
53642;SDS011;39546;45.534;12.048;2023-09-19T04:50:57;6.22;;;2.40;;
53642;SDS011;39546;45.534;12.048;2023-09-19T04:57:01;4.95;;;3.45;;
53642;SDS011;39546;45.534;12.048;2023-09-19T05:03:03;9.30;;;3.92;;
53642;SDS011;39546;45.534;12.048;2023-09-19T05:09:07;5.65;;;2.55;;
53642;SDS011;39546;45.534;12.048;2023-09-19T05:15:09;7.43;;;3.25;;
53642;SDS011;39546;45.534;12.048;2023-09-19T05:21:11;4.15;;;2.95;;
53642;SDS011;39546;45.534;12.048;2023-09-19T05:27:14;8.55;;;3.47;;
53642;SDS011;39546;45.534;12.048;2023-09-19T05:33:20;7.28;;;4.07;;
53642;SDS011;39546;45.534;12.048;2023-09-19T05:39:22;5.60;;;3.58;;
53642;SDS011;39546;45.534;12.048;2023-09-19T05:45:25;4.93;;;3.17;;
53642;SDS011;39546;45.534;12.048;2023-09-19T05:51:27;10.80;;;4.20;;
53642;SDS011;39546;45.534;12.048;2023-09-19T05:57:29;7.85;;;3.70;;
53642;SDS011;39546;45.534;12.048;2023-09-19T06:03:31;7.12;;;4.25;;
53642;SDS011;39546;45.534;12.048;2023-09-19T06:09:34;10.80;;;5.70;;
53642;SDS011;39546;45.534;12.048;2023-09-19T06:15:36;7.03;;;4.55;;
53642;SDS011;39546;45.534;12.048;2023-09-19T06:21:38;15.80;;;5.15;;
53642;SDS011;39546;45.534;12.048;2023-09-19T06:27:40;6.62;;;4.30;;
53642;SDS011;39546;45.534;12.048;2023-09-19T06:33:46;8.05;;;5.20;;
53642;SDS011;39546;45.534;12.048;2023-09-19T06:39:48;6.62;;;4.82;;
53642;SDS011;39546;45.534;12.048;2023-09-19T06:45:51;8.57;;;6.07;;
53642;SDS011;39546;45.534;12.048;2023-09-19T06:51:54;8.15;;;3.53;;
53642;SDS011;39546;45.534;12.048;2023-09-19T06:57:56;13.73;;;7.75;;
53642;SDS011;39546;45.534;12.048;2023-09-19T07:04:00;11.10;;;6.05;;
53642;SDS011;39546;45.534;12.048;2023-09-19T07:10:02;14.10;;;7.57;;
53642;SDS011;39546;45.534;12.048;2023-09-19T07:16:11;10.38;;;5.37;;
53642;SDS011;39546;45.534;12.048;2023-09-19T07:22:27;11.70;;;6.05;;
53642;SDS011;39546;45.534;12.048;2023-09-19T07:28:29;18.50;;;8.90;;
53642;SDS011;39546;45.534;12.048;2023-09-19T07:34:31;8.80;;;6.15;;
53642;SDS011;39546;45.534;12.048;2023-09-19T07:40:33;12.37;;;8.48;;
53642;SDS011;39546;45.534;12.048;2023-09-19T07:46:36;7.15;;;5.15;;
53642;SDS011;39546;45.534;12.048;2023-09-19T07:52:38;8.93;;;4.55;;
53642;SDS011;39546;45.534;12.048;2023-09-19T07:58:41;7.70;;;5.35;;
53642;SDS011;39546;45.534;12.048;2023-09-19T08:04:45;9.00;;;5.47;;
53642;SDS011;39546;45.534;12.048;2023-09-19T08:10:52;11.82;;;6.57;;
53642;SDS011;39546;45.534;12.048;2023-09-19T08:16:57;13.40;;;7.30;;
53642;SDS011;39546;45.534;12.048;2023-09-19T08:23:00;15.27;;;7.70;;
53642;SDS011;39546;45.534;12.048;2023-09-19T08:29:01;9.95;;;6.90;;
53642;SDS011;39546;45.534;12.048;2023-09-19T08:35:06;10.05;;;6.32;;
53642;SDS011;39546;45.534;12.048;2023-09-19T08:41:08;25.08;;;8.07;;
53642;SDS011;39546;45.534;12.048;2023-09-19T08:47:10;17.20;;;11.95;;
53642;SDS011;39546;45.534;12.048;2023-09-19T08:53:21;10.00;;;4.87;;
53642;SDS011;39546;45.534;12.048;2023-09-19T08:59:33;13.13;;;7.30;;
53642;SDS011;39546;45.534;12.048;2023-09-19T09:05:37;17.70;;;7.35;;
53642;SDS011;39546;45.534;12.048;2023-09-19T09:11:43;8.48;;;6.18;;
53642;SDS011;39546;45.534;12.048;2023-09-19T09:17:46;11.27;;;7.45;;
53642;SDS011;39546;45.534;12.048;2023-09-19T09:23:54;9.82;;;5.80;;
53642;SDS011;39546;45.534;12.048;2023-09-19T09:29:56;11.73;;;7.20;;
53642;SDS011;39546;45.534;12.048;2023-09-19T09:35:59;11.40;;;6.18;;
53642;SDS011;39546;45.534;12.048;2023-09-19T09:42:03;12.00;;;6.78;;
53642;SDS011;39546;45.534;12.048;2023-09-19T09:48:08;17.10;;;7.78;;
53642;SDS011;39546;45.534;12.048;2023-09-19T09:54:20;8.10;;;5.37;;
53642;SDS011;39546;45.534;12.048;2023-09-19T10:00:22;17.12;;;9.98;;
53642;SDS011;39546;45.534;12.048;2023-09-19T10:06:24;12.48;;;5.35;;
53642;SDS011;39546;45.534;12.048;2023-09-19T10:12:27;7.78;;;5.37;;
53642;SDS011;39546;45.534;12.048;2023-09-19T10:18:30;12.00;;;6.05;;
53642;SDS011;39546;45.534;12.048;2023-09-19T10:24:37;9.38;;;5.95;;
53642;SDS011;39546;45.534;12.048;2023-09-19T10:30:45;9.07;;;5.65;;
53642;SDS011;39546;45.534;12.048;2023-09-19T10:36:48;7.18;;;3.87;;
53642;SDS011;39546;45.534;12.048;2023-09-19T10:42:52;7.12;;;4.78;;
53642;SDS011;39546;45.534;12.048;2023-09-19T10:49:00;10.43;;;4.70;;
53642;SDS011;39546;45.534;12.048;2023-09-19T10:55:03;10.40;;;4.47;;
53642;SDS011;39546;45.534;12.048;2023-09-19T11:01:05;7.62;;;4.87;;
53642;SDS011;39546;45.534;12.048;2023-09-19T11:07:10;9.52;;;4.32;;
53642;SDS011;39546;45.534;12.048;2023-09-19T11:26:40;6.93;;;3.83;;
53642;SDS011;39546;45.534;12.048;2023-09-19T11:46:12;7.32;;;4.15;;
53642;SDS011;39546;45.534;12.048;2023-09-19T11:52:23;8.98;;;3.85;;
53642;SDS011;39546;45.534;12.048;2023-09-19T11:58:26;7.93;;;3.25;;
53642;SDS011;39546;45.534;12.048;2023-09-19T12:04:34;4.95;;;3.17;;
53642;SDS011;39546;45.534;12.048;2023-09-19T12:10:48;7.47;;;3.33;;
53642;SDS011;39546;45.534;12.048;2023-09-19T12:16:55;9.18;;;4.32;;
53642;SDS011;39546;45.534;12.048;2023-09-19T12:23:00;5.47;;;3.10;;
53642;SDS011;39546;45.534;12.048;2023-09-19T12:29:02;9.05;;;3.95;;
53642;SDS011;39546;45.534;12.048;2023-09-19T12:35:06;9.93;;;4.03;;
53642;SDS011;39546;45.534;12.048;2023-09-19T12:41:34;5.65;;;2.47;;
53642;SDS011;39546;45.534;12.048;2023-09-19T12:47:36;8.18;;;2.78;;
53642;SDS011;39546;45.534;12.048;2023-09-19T12:53:41;5.65;;;2.72;;
53642;SDS011;39546;45.534;12.048;2023-09-19T12:59:45;7.30;;;3.00;;
53642;SDS011;39546;45.534;12.048;2023-09-19T13:05:55;8.20;;;2.70;;
53642;SDS011;39546;45.534;12.048;2023-09-19T13:24:49;4.95;;;2.42;;
53642;SDS011;39546;45.534;12.048;2023-09-19T13:30:52;3.83;;;2.80;;
53642;SDS011;39546;45.534;12.048;2023-09-19T13:36:56;3.78;;;2.28;;
53642;SDS011;39546;45.534;12.048;2023-09-19T13:43:03;3.92;;;2.67;;
53642;SDS011;39546;45.534;12.048;2023-09-19T13:55:11;6.37;;;2.78;;
53642;SDS011;39546;45.534;12.048;2023-09-19T14:01:16;4.70;;;2.50;;
53642;SDS011;39546;45.534;12.048;2023-09-19T14:07:18;3.33;;;2.17;;
53642;SDS011;39546;45.534;12.048;2023-09-19T14:13:21;5.20;;;2.35;;
53642;SDS011;39546;45.534;12.048;2023-09-19T14:25:45;2.45;;;1.55;;
53642;SDS011;39546;45.534;12.048;2023-09-19T14:31:47;4.10;;;2.12;;
53642;SDS011;39546;45.534;12.048;2023-09-19T14:37:49;4.28;;;2.40;;
53642;SDS011;39546;45.534;12.048;2023-09-19T14:43:52;4.95;;;2.65;;
53642;SDS011;39546;45.534;12.048;2023-09-19T14:49:54;8.00;;;2.20;;
53642;SDS011;39546;45.534;12.048;2023-09-19T14:55:56;8.93;;;2.50;;
53642;SDS011;39546;45.534;12.048;2023-09-19T15:02:02;4.12;;;2.12;;
53642;SDS011;39546;45.534;12.048;2023-09-19T15:08:05;3.33;;;2.10;;
53642;SDS011;39546;45.534;12.048;2023-09-19T15:14:07;7.80;;;2.50;;
53642;SDS011;39546;45.534;12.048;2023-09-19T15:20:10;5.25;;;1.90;;
53642;SDS011;39546;45.534;12.048;2023-09-19T15:26:15;8.07;;;2.33;;
53642;SDS011;39546;45.534;12.048;2023-09-19T15:32:23;8.52;;;3.10;;
53642;SDS011;39546;45.534;12.048;2023-09-19T15:38:25;6.35;;;3.67;;
53642;SDS011;39546;45.534;12.048;2023-09-19T15:44:29;7.45;;;2.65;;
53642;SDS011;39546;45.534;12.048;2023-09-19T15:50:32;8.88;;;3.03;;
53642;SDS011;39546;45.534;12.048;2023-09-19T15:56:34;9.45;;;3.00;;
53642;SDS011;39546;45.534;12.048;2023-09-19T16:02:36;6.53;;;2.65;;
53642;SDS011;39546;45.534;12.048;2023-09-19T16:08:41;2.28;;;1.67;;
53642;SDS011;39546;45.534;12.048;2023-09-19T16:14:44;7.60;;;2.12;;
53642;SDS011;39546;45.534;12.048;2023-09-19T16:20:47;3.62;;;1.70;;
53642;SDS011;39546;45.534;12.048;2023-09-19T16:26:50;4.10;;;1.73;;
53642;SDS011;39546;45.534;12.048;2023-09-19T16:32:53;4.72;;;1.87;;
53642;SDS011;39546;45.534;12.048;2023-09-19T16:38:55;7.82;;;2.45;;
53642;SDS011;39546;45.534;12.048;2023-09-19T16:44:58;3.28;;;1.37;;
53642;SDS011;39546;45.534;12.048;2023-09-19T16:51:01;2.87;;;1.45;;
53642;SDS011;39546;45.534;12.048;2023-09-19T16:57:10;1.90;;;1.15;;
53642;SDS011;39546;45.534;12.048;2023-09-19T17:03:15;2.03;;;1.40;;
53642;SDS011;39546;45.534;12.048;2023-09-19T17:09:17;3.25;;;1.45;;
53642;SDS011;39546;45.534;12.048;2023-09-19T17:15:20;13.77;;;1.42;;
53642;SDS011;39546;45.534;12.048;2023-09-19T17:21:23;2.12;;;1.12;;
53642;SDS011;39546;45.534;12.048;2023-09-19T17:27:26;1.00;;;0.88;;
53642;SDS011;39546;45.534;12.048;2023-09-19T17:33:28;2.40;;;0.98;;
53642;SDS011;39546;45.534;12.048;2023-09-19T17:39:30;1.73;;;1.02;;
53642;SDS011;39546;45.534;12.048;2023-09-19T17:45:33;4.15;;;1.40;;
53642;SDS011;39546;45.534;12.048;2023-09-19T17:51:35;1.55;;;0.95;;
53642;SDS011;39546;45.534;12.048;2023-09-19T17:57:37;4.40;;;2.60;;
53642;SDS011;39546;45.534;12.048;2023-09-19T18:03:42;2.75;;;1.30;;
53642;SDS011;39546;45.534;12.048;2023-09-19T18:09:44;4.60;;;1.95;;
53642;SDS011;39546;45.534;12.048;2023-09-19T18:15:46;1.75;;;0.98;;
53642;SDS011;39546;45.534;12.048;2023-09-19T18:21:50;3.28;;;1.62;;
53642;SDS011;39546;45.534;12.048;2023-09-19T18:28:05;4.85;;;1.50;;
53642;SDS011;39546;45.534;12.048;2023-09-19T18:34:07;5.65;;;1.80;;
53642;SDS011;39546;45.534;12.048;2023-09-19T18:40:10;5.75;;;2.25;;
53642;SDS011;39546;45.534;12.048;2023-09-19T18:46:15;4.00;;;1.50;;
53642;SDS011;39546;45.534;12.048;2023-09-19T18:52:25;1.92;;;1.17;;
53642;SDS011;39546;45.534;12.048;2023-09-19T18:58:28;3.45;;;1.65;;
53642;SDS011;39546;45.534;12.048;2023-09-19T19:04:30;2.08;;;1.08;;
53642;SDS011;39546;45.534;12.048;2023-09-19T19:10:37;1.75;;;1.10;;
53642;SDS011;39546;45.534;12.048;2023-09-19T19:22:43;3.25;;;1.65;;
53642;SDS011;39546;45.534;12.048;2023-09-19T19:28:45;4.22;;;1.98;;
53642;SDS011;39546;45.534;12.048;2023-09-19T19:34:52;2.80;;;1.35;;
53642;SDS011;39546;45.534;12.048;2023-09-19T19:41:02;2.17;;;1.50;;
53642;SDS011;39546;45.534;12.048;2023-09-19T19:47:05;2.92;;;1.48;;
53642;SDS011;39546;45.534;12.048;2023-09-19T19:53:07;3.08;;;1.80;;
53642;SDS011;39546;45.534;12.048;2023-09-19T19:59:10;5.03;;;2.95;;
53642;SDS011;39546;45.534;12.048;2023-09-19T20:05:17;4.03;;;2.97;;
53642;SDS011;39546;45.534;12.048;2023-09-19T20:11:20;6.35;;;3.08;;
53642;SDS011;39546;45.534;12.048;2023-09-19T20:17:23;6.22;;;2.55;;
53642;SDS011;39546;45.534;12.048;2023-09-19T20:23:25;6.35;;;3.45;;
53642;SDS011;39546;45.534;12.048;2023-09-19T20:29:28;5.50;;;2.97;;
53642;SDS011;39546;45.534;12.048;2023-09-19T20:35:35;7.55;;;3.12;;
53642;SDS011;39546;45.534;12.048;2023-09-19T20:41:39;7.35;;;2.97;;
53642;SDS011;39546;45.534;12.048;2023-09-19T20:47:42;5.35;;;3.42;;
53642;SDS011;39546;45.534;12.048;2023-09-19T21:00:18;5.62;;;2.90;;
53642;SDS011;39546;45.534;12.048;2023-09-19T21:06:21;6.03;;;2.58;;
53642;SDS011;39546;45.534;12.048;2023-09-19T21:12:23;3.72;;;2.25;;
53642;SDS011;39546;45.534;12.048;2023-09-19T21:18:26;4.07;;;2.72;;
53642;SDS011;39546;45.534;12.048;2023-09-19T21:24:28;5.85;;;2.97;;
53642;SDS011;39546;45.534;12.048;2023-09-19T21:30:33;5.07;;;2.83;;
53642;SDS011;39546;45.534;12.048;2023-09-19T21:36:36;4.03;;;1.95;;
53642;SDS011;39546;45.534;12.048;2023-09-19T21:42:38;1.90;;;1.05;;
53642;SDS011;39546;45.534;12.048;2023-09-19T21:48:45;5.25;;;1.77;;
53642;SDS011;39546;45.534;12.048;2023-09-19T21:54:51;8.25;;;2.42;;
53642;SDS011;39546;45.534;12.048;2023-09-19T22:00:54;2.95;;;1.67;;
53642;SDS011;39546;45.534;12.048;2023-09-19T22:06:56;3.83;;;2.12;;
53642;SDS011;39546;45.534;12.048;2023-09-19T22:12:59;9.90;;;3.10;;
53642;SDS011;39546;45.534;12.048;2023-09-19T22:19:05;4.62;;;2.67;;
53642;SDS011;39546;45.534;12.048;2023-09-19T22:25:07;8.77;;;2.37;;
53642;SDS011;39546;45.534;12.048;2023-09-19T22:31:14;2.08;;;1.48;;
53642;SDS011;39546;45.534;12.048;2023-09-19T22:37:19;9.70;;;2.37;;
53642;SDS011;39546;45.534;12.048;2023-09-19T22:43:22;5.75;;;2.65;;
53642;SDS011;39546;45.534;12.048;2023-09-19T22:49:33;3.70;;;1.65;;
53642;SDS011;39546;45.534;12.048;2023-09-19T22:55:36;5.05;;;2.03;;
53642;SDS011;39546;45.534;12.048;2023-09-19T23:01:41;3.33;;;1.45;;
53642;SDS011;39546;45.534;12.048;2023-09-19T23:07:53;5.68;;;2.53;;
53642;SDS011;39546;45.534;12.048;2023-09-19T23:13:59;3.58;;;2.25;;
53642;SDS011;39546;45.534;12.048;2023-09-19T23:20:02;5.57;;;1.60;;
53642;SDS011;39546;45.534;12.048;2023-09-19T23:26:06;4.40;;;2.12;;
53642;SDS011;39546;45.534;12.048;2023-09-19T23:32:08;2.83;;;1.62;;
53642;SDS011;39546;45.534;12.048;2023-09-19T23:38:16;5.03;;;2.10;;
53642;SDS011;39546;45.534;12.048;2023-09-19T23:44:18;2.00;;;1.40;;
53642;SDS011;39546;45.534;12.048;2023-09-19T23:50:20;2.35;;;1.48;;
53642;SDS011;39546;45.534;12.048;2023-09-19T23:56:26;4.32;;;1.73;;
